createdAt,value
2023-06-14T00:00:01.919Z,36.31
2023-06-14T00:01:02.962Z,36.37
2023-06-14T00:02:03.043Z,36.52
2023-06-14T00:03:02.176Z,36.47
2023-06-14T00:04:02.166Z,36.36
2023-06-14T00:05:03.131Z,36.48
2023-06-14T00:06:02.175Z,36.43
2023-06-14T00:07:02.162Z,36.44
2023-06-14T00:08:02.216Z,36.50
2023-06-14T00:09:02.279Z,36.41
2023-06-14T00:10:02.245Z,36.39
2023-06-14T00:11:03.267Z,36.41
2023-06-14T00:12:02.337Z,36.50
2023-06-14T00:13:03.398Z,36.52
2023-06-14T00:14:03.396Z,36.52
2023-06-14T00:15:03.441Z,36.47
2023-06-14T00:16:02.485Z,36.50
2023-06-14T00:17:03.571Z,36.51
2023-06-14T00:18:03.531Z,36.48
2023-06-14T00:19:02.540Z,36.47
2023-06-14T00:20:03.563Z,36.49
2023-06-14T00:21:03.592Z,36.45
2023-06-14T00:22:03.665Z,36.49
2023-06-14T00:23:03.658Z,36.58
2023-06-14T00:24:02.680Z,36.57
2023-06-14T00:25:15.041Z,36.42
2023-06-14T00:26:03.660Z,36.39
2023-06-14T00:27:02.677Z,36.49
2023-06-14T00:28:02.712Z,36.52
2023-06-14T00:29:03.643Z,36.54
2023-06-14T00:30:03.619Z,36.46
2023-06-14T00:31:02.610Z,36.59
2023-06-14T00:32:03.697Z,36.48
2023-06-14T00:33:03.659Z,36.55
2023-06-14T00:34:02.628Z,36.56
2023-06-14T00:35:03.578Z,36.54
2023-06-14T00:36:02.685Z,36.44
2023-06-14T00:37:03.593Z,36.50
2023-06-14T00:38:03.649Z,36.48
2023-06-14T00:39:03.576Z,36.55
2023-06-14T00:40:02.573Z,36.53
2023-06-14T00:41:03.575Z,36.57
2023-06-14T00:42:02.539Z,36.54
2023-06-14T00:43:03.525Z,36.52
2023-06-14T00:44:03.511Z,36.60
2023-06-14T00:45:03.516Z,36.55
2023-06-14T00:46:02.598Z,36.55
2023-06-14T00:47:03.532Z,36.52
2023-06-14T00:48:03.615Z,36.54
2023-06-14T00:49:03.480Z,36.38
2023-06-14T00:50:03.496Z,36.59
2023-06-14T00:51:02.463Z,36.57
2023-06-14T00:52:02.480Z,36.55
2023-06-14T00:53:03.503Z,36.48
2023-06-14T00:54:02.455Z,36.62
2023-06-14T00:55:02.468Z,36.53
2023-06-14T00:56:03.433Z,36.52
2023-06-14T00:57:03.411Z,36.50
2023-06-14T00:58:03.414Z,36.47
2023-06-14T00:59:02.416Z,36.57
2023-06-14T01:00:03.418Z,36.55
2023-06-14T01:01:03.394Z,36.50
2023-06-14T01:02:03.422Z,36.59
2023-06-14T01:03:03.439Z,36.59
2023-06-14T01:04:03.420Z,36.51
2023-06-14T01:05:03.354Z,36.63
2023-06-14T01:06:03.512Z,36.63
2023-06-14T01:07:03.336Z,36.68
2023-06-14T01:08:03.345Z,36.67
2023-06-14T01:09:02.330Z,36.60
2023-06-14T01:10:02.366Z,36.56
2023-06-14T01:11:03.338Z,36.60
2023-06-14T01:12:03.319Z,36.65
2023-06-14T01:13:02.562Z,36.68
2023-06-14T01:14:02.581Z,36.65
2023-06-14T01:15:03.620Z,36.61
2023-06-14T01:16:02.705Z,36.65
2023-06-14T01:17:03.665Z,36.53
2023-06-14T01:18:02.630Z,36.64
2023-06-14T01:19:03.642Z,36.64
2023-06-14T01:20:02.641Z,36.50
2023-06-14T01:21:03.653Z,36.51
2023-06-14T01:22:03.695Z,36.62
2023-06-14T01:23:03.683Z,36.61
2023-06-14T01:24:03.765Z,36.60
2023-06-14T01:25:02.684Z,36.58
2023-06-14T01:26:03.702Z,36.61
2023-06-14T01:27:02.726Z,36.62
2023-06-14T01:28:02.715Z,36.61
2023-06-14T01:29:03.765Z,36.60
2023-06-14T01:30:02.752Z,36.65
2023-06-14T01:31:03.760Z,36.65
2023-06-14T01:32:03.760Z,36.65
2023-06-14T01:33:03.854Z,36.65
2023-06-14T01:34:03.818Z,36.58
2023-06-14T01:35:03.894Z,36.69
2023-06-14T01:36:03.827Z,36.65
2023-06-14T01:37:03.879Z,36.71
2023-06-14T01:38:03.881Z,36.69
2023-06-14T01:39:02.882Z,36.54
2023-06-14T01:40:03.883Z,36.60
2023-06-14T01:41:03.895Z,36.65
2023-06-14T01:42:03.902Z,36.73
2023-06-14T01:43:03.981Z,36.66
2023-06-14T01:44:03.934Z,36.65
2023-06-14T01:45:03.934Z,36.74
2023-06-14T01:46:04.633Z,36.69
2023-06-14T01:47:03.962Z,36.64
2023-06-14T01:48:04.074Z,36.63
2023-06-14T01:49:03.054Z,36.65
2023-06-14T01:50:04.050Z,36.63
2023-06-14T01:51:04.042Z,36.57
2023-06-14T01:52:04.060Z,36.65
2023-06-14T01:53:04.088Z,36.61
2023-06-14T01:54:04.075Z,36.67
2023-06-14T01:55:04.156Z,36.63
2023-06-14T01:56:04.125Z,36.69
2023-06-14T01:57:04.119Z,36.65
2023-06-14T01:58:03.153Z,36.63
2023-06-14T01:59:04.187Z,36.55
2023-06-14T02:00:04.174Z,36.59
2023-06-14T02:01:03.249Z,36.77
2023-06-14T02:02:04.258Z,36.58
2023-06-14T02:03:04.276Z,36.61
2023-06-14T02:04:03.256Z,36.73
2023-06-14T02:05:04.387Z,36.64
2023-06-14T02:06:04.403Z,36.65
2023-06-14T02:07:04.425Z,36.67
2023-06-14T02:08:04.382Z,36.64
2023-06-14T02:09:04.403Z,36.62
2023-06-14T02:10:04.432Z,36.57
2023-06-14T02:11:04.404Z,36.60
2023-06-14T02:12:04.513Z,36.59
2023-06-14T02:13:04.479Z,36.63
2023-06-14T02:14:04.488Z,36.72
2023-06-14T02:15:04.516Z,36.74
2023-06-14T02:16:04.592Z,36.80
2023-06-14T02:17:04.547Z,36.71
2023-06-14T02:18:04.594Z,36.60
2023-06-14T02:19:03.584Z,36.59
2023-06-14T02:20:04.592Z,36.62
2023-06-14T02:21:04.606Z,36.60
2023-06-14T02:22:04.657Z,36.63
2023-06-14T02:23:03.689Z,36.69
2023-06-14T02:24:04.728Z,36.57
2023-06-14T02:25:04.700Z,36.65
2023-06-14T02:26:04.729Z,36.58
2023-06-14T02:27:04.741Z,36.55
2023-06-14T02:28:03.767Z,36.62
2023-06-14T02:29:04.750Z,36.71
2023-06-14T02:30:04.790Z,36.76
2023-06-14T02:31:04.824Z,36.74
2023-06-14T02:32:04.917Z,36.66
2023-06-14T02:33:03.928Z,36.70
2023-06-14T02:34:03.850Z,36.66
2023-06-14T02:35:03.893Z,36.73
2023-06-14T02:36:04.908Z,36.77
2023-06-14T02:37:03.944Z,36.66
2023-06-14T02:38:04.945Z,36.72
2023-06-14T02:39:04.954Z,36.67
2023-06-14T02:40:04.986Z,36.71
2023-06-14T02:41:05.062Z,36.73
2023-06-14T02:42:05.090Z,36.76
2023-06-14T02:43:05.078Z,36.74
2023-06-14T02:44:05.113Z,36.69
2023-06-14T02:45:05.138Z,36.62
2023-06-14T02:46:05.140Z,36.63
2023-06-14T02:47:05.251Z,36.63
2023-06-14T02:48:05.348Z,36.70
2023-06-14T02:49:04.217Z,36.74
2023-06-14T02:50:05.232Z,36.73
2023-06-14T02:51:05.272Z,36.76
2023-06-14T02:52:04.315Z,36.70
2023-06-14T02:53:04.301Z,36.73
2023-06-14T02:54:04.360Z,36.70
2023-06-14T02:55:04.361Z,36.70
2023-06-14T02:56:05.367Z,36.70
2023-06-14T02:57:05.457Z,36.59
2023-06-14T02:58:05.484Z,36.69
2023-06-14T02:59:05.453Z,36.71
2023-06-14T03:00:05.462Z,36.71
2023-06-14T03:01:05.604Z,36.71
2023-06-14T03:02:05.566Z,36.60
2023-06-14T03:03:04.631Z,36.70
2023-06-14T03:04:05.695Z,36.76
2023-06-14T03:05:05.598Z,36.65
2023-06-14T03:06:04.639Z,36.75
2023-06-14T03:07:05.715Z,36.77
2023-06-14T03:08:05.714Z,36.63
2023-06-14T03:09:05.720Z,36.67
2023-06-14T03:10:05.724Z,36.69
2023-06-14T03:11:04.742Z,36.78
2023-06-14T03:12:05.781Z,36.76
2023-06-14T03:13:05.823Z,36.74
2023-06-14T03:14:05.865Z,36.72
2023-06-14T03:15:05.856Z,36.75
2023-06-14T03:16:05.912Z,36.72
2023-06-14T03:17:06.269Z,36.71
2023-06-14T03:18:05.022Z,36.71
2023-06-14T03:19:06.016Z,36.76
2023-06-14T03:20:06.039Z,36.71
2023-06-14T03:21:06.071Z,36.78
2023-06-14T03:22:06.100Z,36.77
2023-06-14T03:23:06.126Z,36.76
2023-06-14T03:24:05.172Z,36.76
2023-06-14T03:25:06.178Z,36.74
2023-06-14T03:26:06.204Z,36.69
2023-06-14T03:27:05.269Z,36.80
2023-06-14T03:28:06.303Z,36.84
2023-06-14T03:29:05.321Z,36.81
2023-06-14T03:30:06.338Z,36.82
2023-06-14T03:31:05.409Z,36.78
2023-06-14T03:32:06.393Z,36.78
2023-06-14T03:33:07.036Z,36.78
2023-06-14T03:34:06.464Z,36.69
2023-06-14T03:35:05.520Z,36.75
2023-06-14T03:36:06.509Z,36.78
2023-06-14T03:37:06.523Z,36.73
2023-06-14T03:38:06.556Z,36.76
2023-06-14T03:39:06.626Z,36.83
2023-06-14T03:40:05.649Z,36.81
2023-06-14T03:41:06.674Z,36.75
2023-06-14T03:42:06.699Z,36.73
2023-06-14T03:43:06.749Z,36.73
2023-06-14T03:44:06.775Z,36.76
2023-06-14T03:45:06.795Z,36.68
2023-06-14T03:46:06.842Z,36.76
2023-06-14T03:47:06.881Z,36.77
2023-06-14T03:48:06.973Z,36.82
2023-06-14T03:49:06.913Z,36.80
2023-06-14T03:50:06.947Z,36.74
2023-06-14T03:51:06.993Z,36.69
2023-06-14T03:52:07.029Z,36.74
2023-06-14T03:53:06.033Z,36.77
2023-06-14T03:54:41.862Z,36.67
2023-06-14T03:56:06.058Z,36.78
2023-06-14T03:57:07.110Z,36.79
2023-06-14T03:58:07.088Z,36.76
2023-06-14T03:59:06.057Z,36.74
2023-06-14T04:00:07.066Z,36.73
2023-06-14T04:01:07.019Z,36.70
2023-06-14T04:02:07.177Z,36.77
2023-06-14T04:03:07.243Z,36.79
2023-06-14T04:04:07.158Z,36.78
2023-06-14T04:05:07.032Z,36.76
2023-06-14T04:06:06.077Z,36.70
2023-06-14T04:07:05.992Z,36.70
2023-06-14T04:08:06.987Z,36.81
2023-06-14T04:09:06.966Z,36.68
2023-06-14T04:10:06.957Z,36.73
2023-06-14T04:11:06.956Z,36.81
2023-06-14T04:12:06.936Z,36.77
2023-06-14T04:13:06.936Z,36.75
2023-06-14T04:14:06.947Z,36.72
2023-06-14T04:15:19.163Z,36.72
2023-06-14T04:16:06.976Z,36.75
2023-06-14T04:17:06.904Z,36.77
2023-06-14T04:18:06.963Z,36.69
2023-06-14T04:19:06.915Z,36.72
2023-06-14T04:20:06.908Z,36.74
2023-06-14T04:21:05.936Z,36.72
2023-06-14T04:22:06.867Z,36.75
2023-06-14T04:23:06.889Z,36.75
2023-06-14T04:24:05.895Z,36.70
2023-06-14T04:25:06.855Z,36.70
2023-06-14T04:26:06.864Z,36.62
2023-06-14T04:27:05.874Z,36.64
2023-06-14T04:28:06.831Z,36.72
2023-06-14T04:29:06.822Z,36.77
2023-06-14T04:30:05.813Z,36.68
2023-06-14T04:31:06.824Z,36.69
2023-06-14T04:32:06.807Z,36.70
2023-06-14T04:33:06.958Z,36.72
2023-06-14T04:34:06.848Z,36.78
2023-06-14T04:35:05.793Z,36.73
2023-06-14T04:36:06.775Z,36.80
2023-06-14T04:37:06.772Z,36.82
2023-06-14T04:38:06.760Z,36.59
2023-06-14T04:39:06.820Z,36.59
2023-06-14T04:40:06.747Z,36.49
2023-06-14T04:41:06.770Z,36.63
2023-06-14T04:42:06.738Z,36.63
2023-06-14T04:43:05.739Z,36.63
2023-06-14T04:44:05.717Z,36.56
2023-06-14T04:45:05.722Z,36.57
2023-06-14T04:46:06.737Z,36.65
2023-06-14T04:47:06.702Z,36.69
2023-06-14T04:48:05.752Z,36.66
2023-06-14T04:49:06.758Z,36.65
2023-06-14T04:50:06.808Z,36.63
2023-06-14T04:51:05.850Z,36.66
2023-06-14T04:52:06.853Z,36.65
2023-06-14T04:53:05.902Z,36.63
2023-06-14T04:54:06.941Z,36.65
2023-06-14T04:55:06.977Z,36.66
2023-06-14T04:56:06.987Z,36.70
2023-06-14T04:57:06.061Z,36.54
2023-06-14T04:58:07.042Z,36.61
2023-06-14T04:59:07.087Z,36.59
2023-06-14T05:00:06.088Z,36.60
2023-06-14T05:01:07.145Z,36.50
2023-06-14T05:02:07.162Z,36.56
2023-06-14T05:03:06.280Z,36.56
2023-06-14T05:04:07.390Z,36.48
2023-06-14T05:05:07.223Z,36.50
2023-06-14T05:06:07.294Z,36.32
2023-06-14T05:07:06.269Z,36.42
2023-06-14T05:08:07.313Z,36.50
2023-06-14T05:09:07.346Z,36.45
2023-06-14T05:10:07.374Z,36.41
2023-06-14T05:11:07.413Z,36.41
2023-06-14T05:12:06.430Z,36.39
2023-06-14T05:13:07.501Z,36.31
2023-06-14T05:14:07.470Z,36.32
2023-06-14T05:15:07.609Z,36.41
2023-06-14T05:16:06.661Z,36.38
2023-06-14T05:17:07.611Z,36.32
2023-06-14T05:18:07.655Z,36.32
2023-06-14T05:19:07.641Z,36.38
2023-06-14T05:20:07.760Z,36.32
2023-06-14T05:21:07.631Z,36.28
2023-06-14T05:22:07.649Z,36.43
2023-06-14T05:23:07.864Z,36.37
2023-06-14T05:24:06.669Z,36.35
2023-06-14T05:25:07.711Z,36.38
2023-06-14T05:26:08.274Z,36.29
2023-06-14T05:27:09.274Z,36.35
2023-06-14T05:28:08.429Z,36.24
2023-06-14T05:29:07.729Z,36.37
2023-06-14T05:30:10.327Z,36.49
2023-06-14T05:31:07.856Z,36.51
2023-06-14T05:32:07.728Z,36.38
2023-06-14T05:33:07.704Z,36.41
2023-06-14T05:34:07.763Z,36.20
2023-06-14T05:35:07.784Z,36.27
2023-06-14T05:36:08.781Z,36.55
2023-06-14T05:37:07.676Z,36.32
2023-06-14T05:38:09.023Z,36.17
2023-06-14T05:39:07.727Z,36.15
2023-06-14T05:40:09.856Z,36.14
2023-06-14T05:41:06.694Z,36.57
2023-06-14T05:42:07.666Z,36.25
2023-06-14T05:43:07.135Z,36.61
2023-06-14T05:44:07.733Z,36.77
2023-06-14T05:45:08.702Z,36.60
2023-06-14T05:46:07.648Z,36.53
2023-06-14T05:47:08.649Z,36.74
2023-06-14T05:48:07.732Z,36.80
2023-06-14T05:49:07.929Z,36.90
2023-06-14T05:50:08.635Z,34.88
2023-06-14T05:51:07.662Z,35.58
2023-06-14T05:52:06.647Z,35.49
2023-06-14T05:53:07.765Z,35.52
2023-06-14T05:54:07.724Z,35.50
2023-06-14T05:55:07.707Z,35.51
2023-06-14T05:56:07.801Z,35.57
2023-06-14T05:57:08.140Z,36.72
2023-06-14T05:58:07.986Z,36.26
2023-06-14T05:59:07.988Z,37.25
2023-06-14T06:00:07.904Z,36.94
2023-06-14T06:01:08.366Z,36.78
2023-06-14T06:02:08.044Z,37.38
2023-06-14T06:03:08.108Z,37.95
2023-06-14T06:04:08.426Z,38.29
2023-06-14T06:05:08.067Z,38.69
2023-06-14T06:06:08.127Z,39.08
2023-06-14T06:07:07.136Z,39.14
2023-06-14T06:08:08.183Z,39.27
2023-06-14T06:09:07.411Z,39.43
2023-06-14T06:10:08.311Z,39.63
2023-06-14T06:11:07.265Z,39.65
2023-06-14T06:12:07.290Z,39.81
2023-06-14T06:13:10.010Z,40.02
2023-06-14T06:14:08.340Z,40.17
2023-06-14T06:15:08.312Z,39.81
2023-06-14T06:16:08.285Z,39.49
2023-06-14T06:17:08.697Z,39.61
2023-06-14T06:18:07.354Z,40.01
2023-06-14T06:19:07.325Z,39.64
2023-06-14T06:20:08.240Z,39.25
2023-06-14T06:21:07.258Z,39.12
2023-06-14T06:22:08.299Z,39.11
2023-06-14T06:23:08.813Z,39.29
2023-06-14T06:24:08.312Z,39.12
2023-06-14T06:25:08.427Z,39.17
2023-06-14T06:26:08.213Z,39.50
2023-06-14T06:27:07.218Z,39.56
2023-06-14T06:28:08.759Z,39.90
2023-06-14T06:29:08.222Z,40.12
2023-06-14T06:30:08.239Z,40.65
2023-06-14T06:31:08.562Z,40.84
2023-06-14T06:32:08.161Z,40.72
2023-06-14T06:33:08.822Z,40.35
2023-06-14T06:34:08.371Z,40.71
2023-06-14T06:35:09.167Z,41.09
2023-06-14T06:36:08.252Z,41.71
2023-06-14T06:37:08.254Z,41.91
2023-06-14T06:38:08.102Z,41.97
2023-06-14T06:39:08.525Z,41.95
2023-06-14T06:40:08.166Z,41.97
2023-06-14T06:41:07.104Z,42.67
2023-06-14T06:42:08.181Z,41.87
2023-06-14T06:43:11.168Z,41.76
2023-06-14T06:44:08.938Z,41.70
2023-06-14T06:45:08.185Z,41.75
2023-06-14T06:46:08.155Z,41.47
2023-06-14T06:47:08.530Z,41.32
2023-06-14T06:48:08.199Z,41.67
2023-06-14T06:49:08.535Z,41.97
2023-06-14T06:50:08.089Z,41.72
2023-06-14T06:51:08.094Z,41.52
2023-06-14T06:52:08.191Z,41.04
2023-06-14T06:53:08.143Z,40.65
2023-06-14T06:54:09.125Z,40.43
2023-06-14T06:55:07.918Z,39.85
2023-06-14T06:56:08.266Z,39.77
2023-06-14T06:57:08.335Z,39.28
2023-06-14T06:58:08.213Z,39.05
2023-06-14T06:59:07.288Z,39.25
2023-06-14T07:00:08.307Z,39.39
2023-06-14T07:01:07.309Z,39.58
2023-06-14T07:02:08.342Z,39.91
2023-06-14T07:03:08.523Z,40.26
2023-06-14T07:04:08.449Z,40.49
2023-06-14T07:05:08.463Z,40.70
2023-06-14T07:06:08.442Z,40.99
2023-06-14T07:07:07.458Z,40.98
2023-06-14T07:08:08.506Z,40.96
2023-06-14T07:09:08.526Z,41.62
2023-06-14T07:10:08.569Z,41.29
2023-06-14T07:11:08.621Z,40.62
2023-06-14T07:12:07.707Z,39.95
2023-06-14T07:13:10.301Z,40.18
2023-06-14T07:14:08.744Z,39.96
2023-06-14T07:15:07.656Z,39.85
2023-06-14T07:16:08.730Z,39.76
2023-06-14T07:17:08.632Z,40.28
2023-06-14T07:18:07.870Z,40.55
2023-06-14T07:19:08.675Z,40.06
2023-06-14T07:20:08.663Z,39.82
2023-06-14T07:21:08.673Z,39.96
2023-06-14T07:22:08.708Z,39.63
2023-06-14T07:23:08.626Z,39.77
2023-06-14T07:24:07.691Z,39.80
2023-06-14T07:25:07.604Z,39.90
2023-06-14T07:26:08.728Z,40.17
2023-06-14T07:27:08.574Z,40.11
2023-06-14T07:28:08.607Z,40.73
2023-06-14T07:29:08.643Z,41.18
2023-06-14T07:30:08.665Z,40.19
2023-06-14T07:31:08.550Z,40.22
2023-06-14T07:32:08.534Z,40.35
2023-06-14T07:33:08.826Z,40.01
2023-06-14T07:34:08.587Z,40.69
2023-06-14T07:35:08.540Z,40.68
2023-06-14T07:36:08.547Z,40.72
2023-06-14T07:37:07.530Z,40.46
2023-06-14T07:38:08.500Z,40.24
2023-06-14T07:39:08.502Z,40.78
2023-06-14T07:40:08.593Z,40.86
2023-06-14T07:41:07.468Z,40.63
2023-06-14T07:42:08.477Z,40.12
2023-06-14T07:43:08.500Z,39.25
2023-06-14T07:44:08.450Z,38.99
2023-06-14T07:45:08.473Z,38.22
2023-06-14T07:46:08.493Z,37.85
2023-06-14T07:47:08.541Z,37.71
2023-06-14T07:48:08.591Z,37.76
2023-06-14T07:49:08.931Z,37.56
2023-06-14T07:50:08.529Z,37.50
2023-06-14T07:51:08.596Z,37.16
2023-06-14T07:52:08.599Z,36.91
2023-06-14T07:53:08.697Z,36.60
2023-06-14T07:54:07.759Z,36.55
2023-06-14T07:55:07.730Z,36.46
2023-06-14T07:56:08.772Z,36.99
2023-06-14T07:57:07.798Z,36.30
2023-06-14T07:58:08.908Z,36.20
2023-06-14T07:59:08.856Z,36.03
2023-06-14T08:00:08.900Z,35.92
2023-06-14T08:01:08.895Z,35.83
2023-06-14T08:02:08.949Z,35.79
2023-06-14T08:03:08.038Z,35.71
2023-06-14T08:04:08.059Z,35.68
2023-06-14T08:05:08.083Z,35.58
2023-06-14T08:06:09.122Z,35.47
2023-06-14T08:07:09.136Z,35.41
2023-06-14T08:08:09.145Z,35.52
2023-06-14T08:09:08.149Z,35.55
2023-06-14T08:10:08.191Z,35.60
2023-06-14T08:11:08.213Z,35.69
2023-06-14T08:12:09.273Z,35.74
2023-06-14T08:13:09.300Z,35.67
2023-06-14T08:14:09.425Z,35.75
2023-06-14T08:15:15.897Z,35.84
2023-06-14T08:16:09.363Z,35.97
2023-06-14T08:17:09.322Z,36.01
2023-06-14T08:18:09.394Z,35.98
2023-06-14T08:19:09.322Z,36.18
2023-06-14T08:20:09.351Z,36.16
2023-06-14T08:21:09.318Z,36.18
2023-06-14T08:22:09.292Z,36.31
2023-06-14T08:23:09.322Z,36.43
2023-06-14T08:24:09.428Z,36.45
2023-06-14T08:25:09.301Z,36.58
2023-06-14T08:26:09.289Z,36.64
2023-06-14T08:27:08.282Z,36.86
2023-06-14T08:28:08.242Z,36.92
2023-06-14T08:29:09.235Z,36.87
2023-06-14T08:30:09.264Z,36.98
2023-06-14T08:31:09.214Z,37.05
2023-06-14T08:32:09.312Z,36.92
2023-06-14T08:33:16.546Z,37.07
2023-06-14T08:34:09.238Z,37.09
2023-06-14T08:35:09.206Z,37.18
2023-06-14T08:36:09.182Z,37.28
2023-06-14T08:37:08.191Z,37.54
2023-06-14T08:38:09.186Z,37.51
2023-06-14T08:39:09.217Z,37.50
2023-06-14T08:40:09.200Z,37.48
2023-06-14T08:41:09.218Z,37.65
2023-06-14T08:42:14.792Z,37.98
2023-06-14T08:43:09.135Z,38.41
2023-06-14T08:44:09.132Z,37.62
2023-06-14T08:45:08.344Z,37.87
2023-06-14T08:46:08.216Z,37.85
2023-06-14T08:47:08.124Z,37.92
2023-06-14T08:48:08.157Z,38.21
2023-06-14T08:49:09.159Z,38.26
2023-06-14T08:50:16.104Z,37.93
2023-06-14T08:51:09.289Z,38.17
2023-06-14T08:52:09.088Z,37.03
2023-06-14T08:53:09.070Z,37.95
2023-06-14T08:54:09.164Z,37.46
2023-06-14T08:55:09.496Z,37.68
2023-06-14T08:56:09.449Z,37.87
2023-06-14T08:57:09.143Z,38.05
2023-06-14T08:58:09.052Z,38.17
2023-06-14T08:59:09.249Z,38.36
2023-06-14T09:00:09.260Z,38.38
2023-06-14T09:01:09.149Z,39.08
2023-06-14T09:02:13.525Z,38.88
2023-06-14T09:03:08.343Z,38.99
2023-06-14T09:04:09.487Z,38.93
2023-06-14T09:05:08.438Z,39.31
2023-06-14T09:06:09.541Z,39.38
2023-06-14T09:07:09.513Z,39.65
2023-06-14T09:08:09.512Z,39.53
2023-06-14T09:09:09.535Z,39.78
2023-06-14T09:10:08.649Z,39.87
2023-06-14T09:11:09.655Z,39.98
2023-06-14T09:12:09.651Z,40.38
2023-06-14T09:13:09.718Z,40.68
2023-06-14T09:14:08.764Z,40.60
2023-06-14T09:15:08.844Z,40.75
2023-06-14T09:16:09.850Z,40.97
2023-06-14T09:17:09.966Z,41.09
2023-06-14T09:18:10.009Z,41.05
2023-06-14T09:19:09.961Z,41.29
2023-06-14T09:20:10.072Z,41.15
2023-06-14T09:21:10.069Z,41.43
2023-06-14T09:22:10.098Z,41.72
2023-06-14T09:23:10.124Z,41.74
2023-06-14T09:24:10.255Z,41.90
2023-06-14T09:25:14.384Z,41.92
2023-06-14T09:26:10.227Z,41.87
2023-06-14T09:27:10.260Z,42.13
2023-06-14T09:28:10.541Z,42.13
2023-06-14T09:29:10.253Z,42.18
2023-06-14T09:30:10.292Z,42.12
2023-06-14T09:31:10.275Z,42.09
2023-06-14T09:32:10.165Z,42.34
2023-06-14T09:33:10.269Z,42.22
2023-06-14T09:34:09.149Z,42.42
2023-06-14T09:35:10.156Z,42.45
2023-06-14T09:36:09.145Z,42.09
2023-06-14T09:37:09.127Z,42.52
2023-06-14T09:38:10.405Z,42.64
2023-06-14T09:39:10.258Z,42.70
2023-06-14T09:40:10.132Z,42.48
2023-06-14T09:41:09.147Z,42.54
2023-06-14T09:42:10.137Z,42.67
2023-06-14T09:43:10.112Z,42.79
2023-06-14T09:44:14.573Z,42.83
2023-06-14T09:45:10.075Z,42.99
2023-06-14T09:46:10.063Z,43.34
2023-06-14T09:47:10.102Z,44.07
2023-06-14T09:48:09.149Z,42.97
2023-06-14T09:49:09.304Z,42.75
2023-06-14T09:50:10.307Z,42.29
2023-06-14T09:51:10.056Z,42.61
2023-06-14T09:52:10.052Z,42.61
2023-06-14T09:53:10.033Z,42.04
2023-06-14T09:54:10.036Z,42.42
2023-06-14T09:55:10.314Z,42.18
2023-06-14T09:56:09.022Z,41.81
2023-06-14T09:57:10.048Z,41.97
2023-06-14T09:58:10.035Z,41.31
2023-06-14T09:59:09.984Z,41.32
2023-06-14T10:00:09.024Z,41.44
2023-06-14T10:01:10.033Z,41.40
2023-06-14T10:02:09.000Z,41.33
2023-06-14T10:03:08.955Z,41.21
2023-06-14T10:04:11.520Z,41.14
2023-06-14T10:05:10.051Z,41.22
2023-06-14T10:06:09.938Z,41.09
2023-06-14T10:07:10.007Z,40.82
2023-06-14T10:08:08.965Z,40.82
2023-06-14T10:09:10.031Z,40.80
2023-06-14T10:10:09.905Z,41.07
2023-06-14T10:11:09.910Z,40.87
2023-06-14T10:12:09.921Z,40.64
2023-06-14T10:13:09.934Z,40.78
2023-06-14T10:14:09.862Z,40.52
2023-06-14T10:15:09.884Z,40.51
2023-06-14T10:16:09.925Z,40.67
2023-06-14T10:17:08.930Z,40.49
2023-06-14T10:18:09.861Z,40.59
2023-06-14T10:19:09.818Z,40.42
2023-06-14T10:20:09.927Z,40.44
2023-06-14T10:21:09.870Z,40.42
2023-06-14T10:22:08.852Z,40.37
2023-06-14T10:23:08.813Z,40.37
2023-06-14T10:24:08.830Z,40.31
2023-06-14T10:25:09.901Z,40.39
2023-06-14T10:26:08.797Z,40.37
2023-06-14T10:27:08.871Z,40.21
2023-06-14T10:28:08.776Z,40.14
2023-06-14T10:29:09.784Z,40.07
2023-06-14T10:30:09.841Z,40.03
2023-06-14T10:31:10.071Z,40.46
2023-06-14T10:32:09.864Z,40.17
2023-06-14T10:33:09.771Z,40.13
2023-06-14T10:34:08.715Z,40.18
2023-06-14T10:35:08.773Z,40.08
2023-06-14T10:36:09.706Z,40.04
2023-06-14T10:37:09.699Z,39.91
2023-06-14T10:38:09.686Z,39.91
2023-06-14T10:39:09.706Z,39.90
2023-06-14T10:40:08.711Z,39.85
2023-06-14T10:41:08.682Z,39.96
2023-06-14T10:42:09.682Z,39.74
2023-06-14T10:43:09.868Z,39.76
2023-06-14T10:44:09.655Z,39.90
2023-06-14T10:45:10.114Z,40.05
2023-06-14T10:46:08.736Z,40.07
2023-06-14T10:47:09.674Z,39.84
2023-06-14T10:48:08.699Z,40.14
2023-06-14T10:49:09.648Z,40.34
2023-06-14T10:50:09.626Z,40.14
2023-06-14T10:51:09.597Z,40.14
2023-06-14T10:52:09.656Z,39.97
2023-06-14T10:53:10.085Z,39.63
2023-06-14T10:54:09.592Z,39.67
2023-06-14T10:55:09.727Z,39.58
2023-06-14T10:56:09.616Z,39.55
2023-06-14T10:57:08.682Z,39.55
2023-06-14T10:58:09.729Z,39.48
2023-06-14T10:59:08.611Z,39.43
2023-06-14T11:00:09.852Z,39.49
2023-06-14T11:01:09.756Z,39.46
2023-06-14T11:02:09.651Z,39.37
2023-06-14T11:03:09.761Z,39.34
2023-06-14T11:04:09.668Z,39.28
2023-06-14T11:05:09.672Z,39.32
2023-06-14T11:06:09.717Z,39.32
2023-06-14T11:07:09.773Z,39.34
2023-06-14T11:08:10.292Z,39.28
2023-06-14T11:09:08.700Z,39.14
2023-06-14T11:10:09.731Z,39.13
2023-06-14T11:11:09.805Z,39.05
2023-06-14T11:12:09.813Z,39.20
2023-06-14T11:13:08.903Z,39.26
2023-06-14T11:14:09.835Z,39.13
2023-06-14T11:15:09.850Z,39.03
2023-06-14T11:16:09.866Z,39.00
2023-06-14T11:17:09.911Z,39.01
2023-06-14T11:18:10.121Z,39.02
2023-06-14T11:19:10.005Z,38.81
2023-06-14T11:20:09.880Z,38.81
2023-06-14T11:21:09.929Z,38.83
2023-06-14T11:22:09.893Z,39.00
2023-06-14T11:23:09.892Z,39.11
2023-06-14T11:24:09.907Z,39.00
2023-06-14T11:25:09.010Z,39.07
2023-06-14T11:26:09.944Z,39.04
2023-06-14T11:27:09.937Z,39.10
2023-06-14T11:28:10.429Z,39.10
2023-06-14T11:29:08.922Z,38.85
2023-06-14T11:30:10.063Z,38.92
2023-06-14T11:31:09.964Z,38.84
2023-06-14T11:32:10.330Z,39.00
2023-06-14T11:33:09.998Z,38.93
2023-06-14T11:34:10.057Z,38.98
2023-06-14T11:35:10.016Z,38.97
2023-06-14T11:36:10.162Z,38.99
2023-06-14T11:37:10.007Z,38.88
2023-06-14T11:38:10.010Z,38.89
2023-06-14T11:39:10.087Z,38.92
2023-06-14T11:40:10.315Z,38.88
2023-06-14T11:41:09.015Z,38.87
2023-06-14T11:42:10.030Z,38.84
2023-06-14T11:43:10.106Z,38.81
2023-06-14T11:44:10.118Z,38.76
2023-06-14T11:45:10.458Z,38.81
2023-06-14T11:46:10.072Z,38.82
2023-06-14T11:47:10.248Z,38.83
2023-06-14T11:48:10.179Z,38.86
2023-06-14T11:49:10.262Z,38.80
2023-06-14T11:50:10.355Z,39.01
2023-06-14T11:51:10.230Z,38.78
2023-06-14T11:52:10.206Z,38.81
2023-06-14T11:53:10.274Z,38.84
2023-06-14T11:54:10.232Z,38.80
2023-06-14T11:55:10.343Z,38.83
2023-06-14T11:56:10.213Z,38.77
2023-06-14T11:57:10.234Z,38.76
2023-06-14T11:58:10.230Z,38.77
2023-06-14T11:59:10.255Z,38.70
2023-06-14T12:00:10.273Z,38.66
2023-06-14T12:01:10.261Z,38.67
2023-06-14T12:02:10.357Z,38.59
2023-06-14T12:03:10.320Z,38.60
2023-06-14T12:04:10.268Z,38.65
2023-06-14T12:05:10.308Z,38.68
2023-06-14T12:06:10.492Z,38.70
2023-06-14T12:07:10.319Z,38.66
2023-06-14T12:08:10.296Z,38.66
2023-06-14T12:09:10.313Z,38.62
2023-06-14T12:10:09.347Z,38.61
2023-06-14T12:11:10.325Z,38.57
2023-06-14T12:12:09.336Z,38.64
2023-06-14T12:13:10.363Z,38.68
2023-06-14T12:14:10.387Z,38.65
2023-06-14T12:15:09.394Z,38.62
2023-06-14T12:16:09.369Z,38.54
2023-06-14T12:17:10.443Z,38.61
2023-06-14T12:18:10.465Z,38.54
2023-06-14T12:19:10.407Z,38.55
2023-06-14T12:20:10.412Z,38.62
2023-06-14T12:21:10.413Z,38.47
2023-06-14T12:22:10.408Z,38.46
2023-06-14T12:23:10.476Z,38.45
2023-06-14T12:24:10.489Z,38.42
2023-06-14T12:25:10.507Z,38.44
2023-06-14T12:26:12.111Z,38.44
2023-06-14T12:27:09.481Z,38.37
2023-06-14T12:28:10.450Z,38.49
2023-06-14T12:29:10.457Z,38.45
2023-06-14T12:30:10.467Z,38.35
2023-06-14T12:31:10.483Z,38.44
2023-06-14T12:32:10.547Z,38.38
2023-06-14T12:33:10.665Z,38.42
2023-06-14T12:34:09.458Z,38.33
2023-06-14T12:35:10.389Z,38.41
2023-06-14T12:36:10.383Z,38.24
2023-06-14T12:37:10.396Z,38.29
2023-06-14T12:38:10.415Z,38.25
2023-06-14T12:39:10.470Z,38.28
2023-06-14T12:40:10.439Z,38.31
2023-06-14T12:41:10.427Z,38.24
2023-06-14T12:42:10.371Z,38.23
2023-06-14T12:43:09.410Z,38.28
2023-06-14T12:44:10.352Z,38.30
2023-06-14T12:45:10.355Z,38.24
2023-06-14T12:46:09.386Z,38.30
2023-06-14T12:47:10.335Z,38.15
2023-06-14T12:48:10.361Z,38.18
2023-06-14T12:49:10.308Z,38.22
2023-06-14T12:50:10.298Z,38.22
2023-06-14T12:51:10.286Z,38.17
2023-06-14T12:52:10.302Z,38.20
2023-06-14T12:53:09.270Z,38.18